createdAt,value
2017-04-07T00:00:31.112Z,0
2017-04-07T00:01:11.994Z,0
2017-04-07T00:01:52.876Z,0
2017-04-07T00:02:33.754Z,0
2017-04-07T00:03:14.630Z,0
2017-04-07T00:03:55.508Z,0
2017-04-07T00:04:36.397Z,0
2017-04-07T00:05:17.278Z,0
2017-04-07T00:05:58.153Z,0
2017-04-07T00:06:39.033Z,0
2017-04-07T00:07:19.915Z,0
2017-04-07T00:08:00.802Z,0
2017-04-07T00:08:41.680Z,0
2017-04-07T00:09:22.571Z,0
2017-04-07T00:10:03.464Z,0
2017-04-07T00:10:44.332Z,0
2017-04-07T00:11:25.211Z,0
2017-04-07T00:12:06.077Z,0
2017-04-07T00:12:46.954Z,0
2017-04-07T00:13:27.838Z,0
2017-04-07T00:14:08.714Z,0
2017-04-07T00:14:49.587Z,0
2017-04-07T00:15:30.463Z,0
2017-04-07T00:16:11.346Z,0
2017-04-07T00:16:52.225Z,0
2017-04-07T00:17:33.109Z,0
2017-04-07T00:18:13.988Z,0
2017-04-07T00:18:54.858Z,0
2017-04-07T00:19:35.770Z,0
2017-04-07T00:20:16.650Z,0
2017-04-07T00:20:57.530Z,0
2017-04-07T00:21:38.398Z,0
2017-04-07T00:22:19.283Z,0
2017-04-07T00:23:00.163Z,0
2017-04-07T00:23:41.037Z,0
2017-04-07T00:24:21.917Z,0
2017-04-07T00:25:02.795Z,0
2017-04-07T00:25:43.683Z,0
2017-04-07T00:26:24.591Z,0
2017-04-07T00:27:05.473Z,0
2017-04-07T00:27:46.340Z,0
2017-04-07T00:28:27.219Z,0
2017-04-07T00:29:08.100Z,0
2017-04-07T00:29:48.982Z,0
2017-04-07T00:30:29.857Z,0
2017-04-07T00:31:10.738Z,0
2017-04-07T00:31:51.619Z,0
2017-04-07T00:32:32.500Z,0
2017-04-07T00:33:13.376Z,0
2017-04-07T00:33:54.253Z,0
2017-04-07T00:34:35.132Z,0
2017-04-07T00:35:16.019Z,0
2017-04-07T00:35:56.903Z,0
2017-04-07T00:36:37.780Z,0
2017-04-07T00:37:18.658Z,0
2017-04-07T00:37:59.537Z,0
2017-04-07T00:38:40.433Z,0
2017-04-07T00:39:21.309Z,0
2017-04-07T00:40:02.186Z,0
2017-04-07T00:40:43.064Z,0
2017-04-07T00:41:23.945Z,0
2017-04-07T00:42:04.832Z,0
2017-04-07T00:42:45.707Z,0
2017-04-07T00:43:26.586Z,0
2017-04-07T00:44:07.459Z,0
2017-04-07T00:44:48.341Z,0
2017-04-07T00:45:29.219Z,0
2017-04-07T00:46:10.102Z,0
2017-04-07T00:46:50.988Z,0
2017-04-07T00:47:31.874Z,0
2017-04-07T00:48:12.752Z,0
2017-04-07T00:48:53.632Z,0
2017-04-07T00:49:34.506Z,0
2017-04-07T00:50:15.386Z,0
2017-04-07T00:50:56.272Z,0
2017-04-07T00:51:37.149Z,0
2017-04-07T00:52:18.025Z,0
2017-04-07T00:52:58.908Z,0
2017-04-07T00:53:39.791Z,0
2017-04-07T00:54:20.676Z,0
2017-04-07T00:55:01.560Z,0
2017-04-07T00:55:42.438Z,0
2017-04-07T00:56:23.314Z,0
2017-04-07T00:57:04.194Z,0
2017-04-07T00:57:45.079Z,0
2017-04-07T00:58:25.951Z,0
2017-04-07T00:59:06.832Z,0
2017-04-07T00:59:47.731Z,0
2017-04-07T01:00:28.614Z,0
2017-04-07T01:01:09.494Z,0
2017-04-07T01:01:50.375Z,0
2017-04-07T01:02:31.261Z,0
2017-04-07T01:03:12.137Z,0
2017-04-07T01:03:53.019Z,0
2017-04-07T01:04:33.903Z,0
2017-04-07T01:05:14.790Z,0
2017-04-07T01:05:55.673Z,0
2017-04-07T01:06:36.551Z,0
2017-04-07T01:07:17.437Z,0
2017-04-07T01:07:58.322Z,0
2017-04-07T01:08:39.205Z,0
2017-04-07T01:09:20.081Z,0
2017-04-07T01:10:00.956Z,0
2017-04-07T01:10:41.838Z,0
2017-04-07T01:11:22.722Z,0
2017-04-07T01:12:03.605Z,0
2017-04-07T01:12:44.484Z,0
2017-04-07T01:13:25.369Z,0
2017-04-07T01:14:06.256Z,0
2017-04-07T01:14:47.138Z,0
2017-04-07T01:15:28.019Z,0
2017-04-07T01:16:08.895Z,0
2017-04-07T01:16:49.776Z,0
2017-04-07T01:17:30.658Z,0
2017-04-07T01:18:11.536Z,0
2017-04-07T01:18:52.419Z,0
2017-04-07T01:19:33.300Z,0
2017-04-07T01:20:14.185Z,0
2017-04-07T01:20:55.064Z,0
2017-04-07T01:21:35.943Z,0
2017-04-07T01:22:16.855Z,0
2017-04-07T01:22:57.741Z,0
2017-04-07T01:23:38.617Z,0
2017-04-07T01:24:19.503Z,0
2017-04-07T01:25:00.389Z,0
2017-04-07T01:25:41.270Z,0
2017-04-07T01:26:22.146Z,0
2017-04-07T01:27:03.037Z,0
2017-04-07T01:27:43.914Z,0
2017-04-07T01:28:24.792Z,0
2017-04-07T01:29:05.668Z,0
2017-04-07T01:29:46.540Z,0
2017-04-07T01:30:27.425Z,0
2017-04-07T01:31:08.308Z,0
2017-04-07T01:31:49.182Z,0
2017-04-07T01:32:30.061Z,0
2017-04-07T01:33:10.941Z,0
2017-04-07T01:33:51.825Z,0
2017-04-07T01:34:32.700Z,0
2017-04-07T01:35:13.582Z,0
2017-04-07T01:35:54.461Z,0
2017-04-07T01:36:35.351Z,0
2017-04-07T01:37:16.233Z,0
2017-04-07T01:37:57.116Z,0
2017-04-07T01:38:37.997Z,0
2017-04-07T01:39:18.878Z,0
2017-04-07T01:39:59.759Z,0
2017-04-07T01:40:40.642Z,0
2017-04-07T01:41:21.516Z,0
2017-04-07T01:42:02.413Z,0
2017-04-07T01:42:43.295Z,0
2017-04-07T01:43:24.176Z,0
2017-04-07T01:44:05.043Z,0
2017-04-07T01:44:45.927Z,0
2017-04-07T01:45:26.800Z,0
2017-04-07T01:46:07.691Z,0
2017-04-07T01:46:48.573Z,0
2017-04-07T01:47:29.450Z,0
2017-04-07T01:48:10.338Z,0
2017-04-07T01:48:51.218Z,0
2017-04-07T01:49:32.103Z,0
2017-04-07T01:50:12.982Z,0
2017-04-07T01:50:53.862Z,0
2017-04-07T01:51:34.747Z,0
2017-04-07T01:52:15.633Z,0
2017-04-07T01:52:56.515Z,0
2017-04-07T01:53:37.391Z,0
2017-04-07T01:54:18.275Z,0
2017-04-07T01:54:59.167Z,0
2017-04-07T01:55:40.049Z,0
2017-04-07T01:56:20.924Z,0
2017-04-07T01:57:01.796Z,0
2017-04-07T01:57:42.683Z,0
2017-04-07T01:58:23.565Z,0
2017-04-07T01:59:04.443Z,0
2017-04-07T01:59:45.325Z,0
2017-04-07T02:00:26.212Z,0
2017-04-07T02:01:07.093Z,0
2017-04-07T02:01:47.974Z,0
2017-04-07T02:02:28.853Z,0
2017-04-07T02:03:09.752Z,0
2017-04-07T02:03:50.627Z,0
2017-04-07T02:04:31.508Z,0
2017-04-07T02:05:12.385Z,0
2017-04-07T02:05:53.269Z,0
2017-04-07T02:06:34.150Z,0
2017-04-07T02:07:15.027Z,0
2017-04-07T02:07:55.894Z,0
2017-04-07T02:08:36.776Z,0
2017-04-07T02:09:17.651Z,0
2017-04-07T02:09:58.533Z,0
2017-04-07T02:10:39.416Z,0
2017-04-07T02:11:20.293Z,0
2017-04-07T02:12:01.176Z,0
2017-04-07T02:12:42.059Z,0
2017-04-07T02:13:22.937Z,0
2017-04-07T02:14:03.816Z,0
2017-04-07T02:14:44.697Z,0
2017-04-07T02:15:25.576Z,0
2017-04-07T02:16:06.461Z,0
2017-04-07T02:16:47.337Z,0
2017-04-07T02:17:28.213Z,0
2017-04-07T02:18:09.104Z,0
2017-04-07T02:18:49.991Z,0
2017-04-07T02:19:30.871Z,0
2017-04-07T02:20:11.749Z,0
2017-04-07T02:20:52.636Z,0
2017-04-07T02:21:33.515Z,0
2017-04-07T02:22:14.394Z,0
2017-04-07T02:22:55.286Z,0
2017-04-07T02:23:36.173Z,0
2017-04-07T02:24:17.052Z,0
2017-04-07T02:24:57.932Z,0
2017-04-07T02:25:38.811Z,0
2017-04-07T02:26:19.694Z,0
2017-04-07T02:27:00.576Z,0
2017-04-07T02:27:41.462Z,0
2017-04-07T02:28:22.341Z,0
2017-04-07T02:29:03.214Z,0
2017-04-07T02:29:44.096Z,0
2017-04-07T02:30:24.976Z,0
2017-04-07T02:31:05.859Z,0
2017-04-07T02:31:46.739Z,0
2017-04-07T02:32:27.625Z,0
2017-04-07T02:33:08.509Z,0
2017-04-07T02:33:49.388Z,0
2017-04-07T02:34:30.271Z,0
2017-04-07T02:35:11.154Z,0
2017-04-07T02:35:52.042Z,0
2017-04-07T02:36:32.925Z,0
2017-04-07T02:37:13.808Z,0
2017-04-07T02:37:54.688Z,0
2017-04-07T02:38:35.579Z,0
2017-04-07T02:39:16.461Z,0
2017-04-07T02:39:57.337Z,0
2017-04-07T02:40:38.204Z,0
2017-04-07T02:41:19.086Z,0
2017-04-07T02:41:59.968Z,0
2017-04-07T02:42:40.854Z,0
2017-04-07T02:43:21.718Z,0
2017-04-07T02:44:02.598Z,0
2017-04-07T02:44:43.480Z,0
2017-04-07T02:45:24.365Z,0
2017-04-07T02:46:05.240Z,0
2017-04-07T02:46:46.118Z,0
2017-04-07T02:47:26.998Z,0
2017-04-07T02:48:07.874Z,0
2017-04-07T02:48:48.754Z,0
2017-04-07T02:49:29.634Z,0
2017-04-07T02:50:10.512Z,0
2017-04-07T02:50:51.395Z,0
2017-04-07T02:51:32.281Z,0
2017-04-07T02:52:13.164Z,0
2017-04-07T02:52:54.047Z,0
2017-04-07T02:53:34.933Z,0
2017-04-07T02:54:15.814Z,0
2017-04-07T02:54:56.697Z,0
2017-04-07T02:55:37.576Z,0
2017-04-07T02:56:18.453Z,0
2017-04-07T02:56:59.333Z,0
2017-04-07T02:57:40.212Z,0
2017-04-07T02:58:21.095Z,0
2017-04-07T02:59:01.973Z,0
2017-04-07T02:59:42.857Z,0
2017-04-07T03:00:23.743Z,0
2017-04-07T03:01:04.625Z,0
2017-04-07T03:01:45.503Z,0
2017-04-07T03:02:26.386Z,0
2017-04-07T03:03:07.275Z,0
2017-04-07T03:03:48.156Z,0
2017-04-07T03:04:29.028Z,0
2017-04-07T03:05:09.897Z,0
2017-04-07T03:05:50.777Z,0
2017-04-07T03:06:31.661Z,0
2017-04-07T03:07:12.572Z,0
2017-04-07T03:07:53.455Z,0
2017-04-07T03:08:34.339Z,0
2017-04-07T03:09:15.218Z,0
2017-04-07T03:09:56.093Z,0
2017-04-07T03:10:36.962Z,0
2017-04-07T03:11:17.844Z,0
2017-04-07T03:11:58.728Z,0
2017-04-07T03:12:39.608Z,0
2017-04-07T03:13:20.488Z,0
2017-04-07T03:14:01.365Z,0
2017-04-07T03:14:42.247Z,0
2017-04-07T03:15:23.127Z,0
2017-04-07T03:16:04.011Z,0
2017-04-07T03:16:44.889Z,0
2017-04-07T03:17:25.794Z,0
2017-04-07T03:18:06.652Z,0
2017-04-07T03:18:47.532Z,0
2017-04-07T03:19:28.407Z,0
2017-04-07T03:20:09.280Z,0
2017-04-07T03:20:50.164Z,0
2017-04-07T03:21:31.048Z,0
2017-04-07T03:22:11.925Z,0
2017-04-07T03:22:52.796Z,0
2017-04-07T03:23:33.678Z,0
2017-04-07T03:24:14.560Z,0
2017-04-07T03:24:55.442Z,0
2017-04-07T03:25:36.331Z,0
2017-04-07T03:26:17.202Z,0
2017-04-07T03:26:58.082Z,0
2017-04-07T03:27:38.962Z,0
2017-04-07T03:28:19.843Z,0
2017-04-07T03:29:00.719Z,0
2017-04-07T03:29:41.593Z,0
2017-04-07T03:30:22.474Z,0
2017-04-07T03:31:03.366Z,0
2017-04-07T03:31:44.422Z,0
2017-04-07T03:32:25.607Z,0
2017-04-07T03:33:06.571Z,0
2017-04-07T03:33:47.453Z,0
2017-04-07T03:34:28.337Z,0
2017-04-07T03:35:09.259Z,0
2017-04-07T03:35:50.131Z,0
2017-04-07T03:36:31.013Z,0
2017-04-07T03:37:11.905Z,0
2017-04-07T03:37:52.784Z,0
2017-04-07T03:38:33.665Z,0
2017-04-07T03:39:14.549Z,0
2017-04-07T03:39:55.441Z,0
2017-04-07T03:40:36.330Z,0
2017-04-07T03:41:17.207Z,0
2017-04-07T03:41:58.085Z,0
2017-04-07T03:42:39.005Z,0
2017-04-07T03:43:19.878Z,0
2017-04-07T03:44:00.762Z,0
2017-04-07T03:44:41.648Z,0
2017-04-07T03:45:22.523Z,0
2017-04-07T03:46:03.403Z,0
2017-04-07T03:46:44.284Z,0
2017-04-07T03:47:25.168Z,0
2017-04-07T03:48:06.051Z,0
2017-04-07T03:48:46.926Z,0
2017-04-07T03:49:27.802Z,0
2017-04-07T03:50:08.680Z,0
2017-04-07T03:50:49.565Z,0
2017-04-07T03:51:30.444Z,0
2017-04-07T03:52:11.315Z,0
2017-04-07T03:52:52.193Z,0
2017-04-07T03:53:33.076Z,0
2017-04-07T03:54:13.961Z,0
2017-04-07T03:54:54.840Z,0
2017-04-07T03:55:35.721Z,0
2017-04-07T03:56:16.608Z,0
2017-04-07T03:56:57.495Z,0
2017-04-07T03:57:38.372Z,0
2017-04-07T03:58:19.251Z,0
2017-04-07T03:59:00.122Z,0
2017-04-07T03:59:41.002Z,4
2017-04-07T04:00:21.884Z,4
2017-04-07T04:01:02.763Z,4
2017-04-07T04:01:43.644Z,4
2017-04-07T04:02:24.530Z,4
2017-04-07T04:03:05.420Z,4
2017-04-07T04:03:46.299Z,0
2017-04-07T04:04:27.182Z,0
2017-04-07T04:05:08.065Z,0
2017-04-07T04:05:48.951Z,4
2017-04-07T04:06:29.845Z,4
2017-04-07T04:07:10.711Z,4
2017-04-07T04:07:51.595Z,4
2017-04-07T04:08:32.483Z,4
2017-04-07T04:09:13.365Z,4
2017-04-07T04:09:54.240Z,4
2017-04-07T04:10:35.116Z,0
2017-04-07T04:11:16.009Z,4
2017-04-07T04:11:56.889Z,4
2017-04-07T04:12:37.765Z,4
2017-04-07T04:13:18.643Z,4
2017-04-07T04:13:59.524Z,4
2017-04-07T04:14:40.404Z,8
2017-04-07T04:15:21.273Z,4
2017-04-07T04:16:02.144Z,8
2017-04-07T04:16:43.024Z,8
2017-04-07T04:17:23.899Z,8
2017-04-07T04:18:04.770Z,8
2017-04-07T04:18:45.667Z,8
2017-04-07T04:19:26.547Z,12
2017-04-07T04:20:07.416Z,8
2017-04-07T04:20:48.282Z,12
2017-04-07T04:21:29.168Z,12
2017-04-07T04:22:10.054Z,12
2017-04-07T04:22:50.932Z,16
2017-04-07T04:23:31.805Z,16
2017-04-07T04:24:12.683Z,24
2017-04-07T04:24:53.562Z,20
2017-04-07T04:25:34.459Z,28
2017-04-07T04:26:15.328Z,24
2017-04-07T04:26:56.202Z,28
2017-04-07T04:27:37.076Z,28
2017-04-07T04:28:17.968Z,36
2017-04-07T04:28:58.848Z,48
2017-04-07T04:29:39.725Z,48
2017-04-07T04:30:20.598Z,56
2017-04-07T04:31:01.478Z,52
2017-04-07T04:31:42.364Z,44
2017-04-07T04:32:23.243Z,48
2017-04-07T04:33:04.109Z,60
2017-04-07T04:33:44.985Z,56
2017-04-07T04:34:25.869Z,60
2017-04-07T04:35:06.749Z,76
2017-04-07T04:35:47.662Z,72
2017-04-07T04:36:28.541Z,72
2017-04-07T04:37:09.420Z,72
2017-04-07T04:37:50.303Z,72
2017-04-07T04:38:31.182Z,76
2017-04-07T04:39:12.060Z,100
2017-04-07T04:39:52.941Z,124
2017-04-07T04:40:33.822Z,112
2017-04-07T04:41:14.702Z,160
2017-04-07T04:41:55.575Z,148
2017-04-07T04:42:36.450Z,148
2017-04-07T04:43:17.337Z,156
2017-04-07T04:43:58.223Z,148
2017-04-07T04:44:39.099Z,136
2017-04-07T04:45:19.982Z,120
2017-04-07T04:46:00.861Z,108
2017-04-07T04:46:41.748Z,124
2017-04-07T04:47:22.647Z,140
2017-04-07T04:48:03.500Z,132
2017-04-07T04:48:44.383Z,148
2017-04-07T04:49:25.292Z,144
2017-04-07T04:50:06.153Z,176
2017-04-07T04:50:47.029Z,172
2017-04-07T04:51:27.909Z,168
2017-04-07T04:52:08.789Z,192
2017-04-07T04:52:49.675Z,176
2017-04-07T04:53:30.553Z,176
2017-04-07T04:54:11.430Z,172
2017-04-07T04:54:52.319Z,172
2017-04-07T04:55:33.201Z,168
2017-04-07T04:56:14.077Z,192
2017-04-07T04:56:54.950Z,172
2017-04-07T04:57:35.830Z,168
2017-04-07T04:58:16.711Z,160
2017-04-07T04:58:57.592Z,160
2017-04-07T04:59:38.472Z,152
2017-04-07T05:00:19.352Z,176
2017-04-07T05:01:00.220Z,176
2017-04-07T05:01:41.101Z,172
2017-04-07T05:02:21.986Z,200
2017-04-07T05:03:02.876Z,188
2017-04-07T05:03:43.737Z,180
2017-04-07T05:04:24.616Z,160
2017-04-07T05:05:05.526Z,172
2017-04-07T05:05:46.402Z,192
2017-04-07T05:06:27.283Z,180
2017-04-07T05:07:08.167Z,164
2017-04-07T05:07:49.051Z,180
2017-04-07T05:08:29.931Z,168
2017-04-07T05:09:10.806Z,164
2017-04-07T05:09:51.689Z,168
2017-04-07T05:10:32.567Z,180
2017-04-07T05:11:13.446Z,180
2017-04-07T05:11:54.326Z,188
2017-04-07T05:12:35.209Z,192
2017-04-07T05:13:16.091Z,188
2017-04-07T05:13:56.974Z,208
2017-04-07T05:14:37.859Z,212
2017-04-07T05:15:18.744Z,216
2017-04-07T05:15:59.624Z,200
2017-04-07T05:16:40.511Z,212
2017-04-07T05:17:21.384Z,208
2017-04-07T05:18:02.254Z,220
2017-04-07T05:18:43.135Z,216
2017-04-07T05:19:24.017Z,248
2017-04-07T05:20:04.896Z,252
2017-04-07T05:20:45.778Z,224
2017-04-07T05:21:26.656Z,268
2017-04-07T05:22:07.531Z,264
2017-04-07T05:22:48.419Z,272
2017-04-07T05:23:29.296Z,280
2017-04-07T05:24:10.178Z,300
2017-04-07T05:24:51.057Z,292
2017-04-07T05:25:31.942Z,260
2017-04-07T05:26:12.815Z,272
2017-04-07T05:26:53.706Z,332
2017-04-07T05:27:34.581Z,332
2017-04-07T05:28:15.454Z,340
2017-04-07T05:28:56.331Z,340
2017-04-07T05:29:37.211Z,352
2017-04-07T05:30:18.088Z,328
2017-04-07T05:30:58.962Z,396
2017-04-07T05:31:39.839Z,376
2017-04-07T05:32:20.724Z,356
2017-04-07T05:33:01.613Z,424
2017-04-07T05:33:42.488Z,400
2017-04-07T05:34:23.367Z,412
2017-04-07T05:35:04.245Z,408
2017-04-07T05:35:45.129Z,400
2017-04-07T05:36:26.019Z,392
2017-04-07T05:37:06.887Z,372
2017-04-07T05:37:47.754Z,464
2017-04-07T05:38:28.634Z,416
2017-04-07T05:39:09.511Z,444
2017-04-07T05:39:50.394Z,480
2017-04-07T05:40:31.270Z,524
2017-04-07T05:41:12.151Z,508
2017-04-07T05:41:53.036Z,524
2017-04-07T05:42:33.918Z,528
2017-04-07T05:43:14.797Z,504
2017-04-07T05:43:55.670Z,480
2017-04-07T05:44:36.549Z,480
2017-04-07T05:45:17.437Z,556
2017-04-07T05:45:58.339Z,564
2017-04-07T05:46:39.204Z,624
2017-04-07T05:47:20.079Z,576
2017-04-07T05:48:00.963Z,600
2017-04-07T05:48:41.870Z,648
2017-04-07T05:49:22.752Z,696
2017-04-07T05:50:03.629Z,748
2017-04-07T05:50:44.513Z,744
2017-04-07T05:51:25.394Z,688
2017-04-07T05:52:06.267Z,692
2017-04-07T05:52:47.150Z,728
2017-04-07T05:53:28.030Z,660
2017-04-07T05:54:08.909Z,664
2017-04-07T05:54:49.793Z,684
2017-04-07T05:55:30.667Z,676
2017-04-07T05:56:11.545Z,656
2017-04-07T05:56:52.421Z,712
2017-04-07T05:57:33.302Z,720
2017-04-07T05:58:14.181Z,772
2017-04-07T05:58:55.056Z,916
2017-04-07T05:59:35.936Z,916
2017-04-07T06:00:16.810Z,880
2017-04-07T06:00:57.694Z,864
2017-04-07T06:01:38.573Z,716
2017-04-07T06:02:19.459Z,780
2017-04-07T06:03:00.345Z,712
2017-04-07T06:03:41.293Z,816
2017-04-07T06:04:22.186Z,856
2017-04-07T06:05:03.075Z,740
2017-04-07T06:05:43.941Z,788
2017-04-07T06:06:24.818Z,852
2017-04-07T06:07:05.698Z,948
2017-04-07T06:07:46.581Z,916
2017-04-07T06:08:27.463Z,988
2017-04-07T06:09:08.332Z,1016
2017-04-07T06:09:49.214Z,976
2017-04-07T06:10:30.100Z,980
2017-04-07T06:11:10.984Z,1044
2017-04-07T06:11:51.858Z,928
2017-04-07T06:12:32.742Z,920
2017-04-07T06:13:13.621Z,916
2017-04-07T06:13:54.509Z,1004
2017-04-07T06:14:35.383Z,980
2017-04-07T06:15:16.270Z,968
2017-04-07T06:15:57.159Z,1020
2017-04-07T06:16:38.044Z,1088
2017-04-07T06:17:18.927Z,984
2017-04-07T06:17:59.813Z,936
2017-04-07T06:18:40.687Z,944
2017-04-07T06:19:21.571Z,976
2017-04-07T06:20:02.457Z,1116
2017-04-07T06:20:43.350Z,1120
2017-04-07T06:21:24.224Z,1096
2017-04-07T06:22:05.122Z,1132
2017-04-07T06:22:45.998Z,1032
2017-04-07T06:23:26.878Z,1148
2017-04-07T06:24:07.762Z,1148
2017-04-07T06:24:48.643Z,1156
2017-04-07T06:25:29.537Z,1160
2017-04-07T06:26:10.426Z,1100
2017-04-07T06:26:51.317Z,1136
2017-04-07T06:27:32.195Z,1136
2017-04-07T06:28:13.075Z,1016
2017-04-07T06:28:53.958Z,1004
2017-04-07T06:29:34.841Z,1008
2017-04-07T06:30:15.723Z,1064
2017-04-07T06:30:56.624Z,1100
2017-04-07T06:31:37.475Z,980
2017-04-07T06:32:18.359Z,1032
2017-04-07T06:32:59.236Z,1008
2017-04-07T06:33:40.119Z,1008
2017-04-07T06:34:20.994Z,928
2017-04-07T06:35:01.866Z,1016
2017-04-07T06:35:42.749Z,956
2017-04-07T06:36:23.634Z,1028
2017-04-07T06:37:04.512Z,972
2017-04-07T06:37:45.394Z,888
2017-04-07T06:38:26.273Z,868
2017-04-07T06:39:07.168Z,884
2017-04-07T06:39:48.042Z,776
2017-04-07T06:40:28.921Z,924
2017-04-07T06:41:09.796Z,880
2017-04-07T06:41:50.675Z,868
2017-04-07T06:42:31.560Z,796
2017-04-07T06:43:12.458Z,880
2017-04-07T06:43:53.321Z,892
2017-04-07T06:44:34.208Z,856
2017-04-07T06:45:15.089Z,892
2017-04-07T06:45:55.971Z,924
2017-04-07T06:46:36.853Z,992
2017-04-07T06:47:17.722Z,916
2017-04-07T06:47:58.604Z,896
2017-04-07T06:48:39.485Z,1044
2017-04-07T06:49:20.372Z,1032
2017-04-07T06:50:01.246Z,976
2017-04-07T06:50:42.128Z,972
2017-04-07T06:51:23.008Z,1096
2017-04-07T06:52:03.887Z,992
2017-04-07T06:52:44.771Z,1016
2017-04-07T06:53:25.663Z,984
2017-04-07T06:54:06.540Z,1004
2017-04-07T06:54:47.416Z,964
2017-04-07T06:55:28.293Z,968
2017-04-07T06:56:09.169Z,980
2017-04-07T06:56:50.053Z,936
2017-04-07T06:57:30.934Z,1060
2017-04-07T06:58:11.812Z,1040
2017-04-07T06:58:52.684Z,896
2017-04-07T06:59:33.559Z,1056
2017-04-07T07:00:14.447Z,1044
2017-04-07T07:00:55.328Z,1036
2017-04-07T07:01:36.219Z,1004
2017-04-07T07:02:17.097Z,992
2017-04-07T07:02:57.975Z,1040
2017-04-07T07:03:38.859Z,960
2017-04-07T07:04:19.742Z,1056
2017-04-07T07:05:00.620Z,1052
2017-04-07T07:05:41.509Z,1112
2017-04-07T07:06:22.393Z,1036
2017-04-07T07:07:03.274Z,1244
2017-04-07T07:07:44.157Z,1172
2017-04-07T07:08:25.041Z,1140
2017-04-07T07:09:05.930Z,1308
2017-04-07T07:09:46.806Z,1172
2017-04-07T07:10:27.692Z,1068
2017-04-07T07:11:08.569Z,1120
2017-04-07T07:11:49.455Z,1056
2017-04-07T07:12:30.336Z,1012
2017-04-07T07:13:11.218Z,1160
2017-04-07T07:13:52.097Z,1156
2017-04-07T07:14:32.979Z,1192
2017-04-07T07:15:13.875Z,1360
2017-04-07T07:15:54.756Z,1280
2017-04-07T07:16:35.642Z,1336
2017-04-07T07:17:16.525Z,1116
2017-04-07T07:17:57.404Z,1160
2017-04-07T07:18:38.289Z,1192
2017-04-07T07:19:19.174Z,1148
2017-04-07T07:20:00.058Z,1072
2017-04-07T07:20:40.970Z,1128
2017-04-07T07:21:21.814Z,1164
2017-04-07T07:22:02.683Z,1176
2017-04-07T07:22:43.568Z,1152
2017-04-07T07:23:24.451Z,1052
2017-04-07T07:24:05.332Z,1200
2017-04-07T07:24:46.212Z,1260
2017-04-07T07:25:27.103Z,1348
2017-04-07T07:26:07.992Z,1420
2017-04-07T07:26:48.868Z,1416
2017-04-07T07:27:29.748Z,1332
2017-04-07T07:28:10.631Z,1288
2017-04-07T07:28:51.499Z,1412
2017-04-07T07:29:32.387Z,1292
2017-04-07T07:30:13.261Z,1432
2017-04-07T07:30:54.145Z,1672
2017-04-07T07:31:35.029Z,1548
2017-04-07T07:32:15.912Z,1580
2017-04-07T07:32:56.801Z,1632
2017-04-07T07:33:37.683Z,1620
2017-04-07T07:34:18.564Z,1576
2017-04-07T07:34:59.446Z,1816
2017-04-07T07:35:40.329Z,1860
2017-04-07T07:36:21.206Z,1536
2017-04-07T07:37:02.073Z,1408
2017-04-07T07:37:42.957Z,1924
2017-04-07T07:38:23.837Z,1824
2017-04-07T07:39:04.717Z,2128
2017-04-07T07:39:45.593Z,2084
2017-04-07T07:40:26.469Z,1712
2017-04-07T07:41:07.353Z,1788
2017-04-07T07:41:48.247Z,1748
2017-04-07T07:42:29.124Z,1784
2017-04-07T07:43:10.013Z,2016
2017-04-07T07:43:50.918Z,2116
2017-04-07T07:44:31.806Z,2044
2017-04-07T07:45:12.690Z,2008
2017-04-07T07:45:53.574Z,1848
2017-04-07T07:46:34.450Z,1832
2017-04-07T07:47:15.332Z,1932
2017-04-07T07:47:56.218Z,1964
2017-04-07T07:48:37.106Z,1784
2017-04-07T07:49:17.982Z,1692
2017-04-07T07:49:58.863Z,1700
2017-04-07T07:50:39.743Z,2004
2017-04-07T07:51:20.631Z,1804
2017-04-07T07:52:01.522Z,1740
2017-04-07T07:52:42.398Z,1844
2017-04-07T07:53:23.288Z,1772
2017-04-07T07:54:04.220Z,1904
2017-04-07T07:54:45.087Z,1872
2017-04-07T07:55:26.002Z,1964
2017-04-07T07:56:06.850Z,1984
2017-04-07T07:56:47.783Z,1748
2017-04-07T07:57:28.612Z,1868
2017-04-07T07:58:09.495Z,2308
2017-04-07T07:58:50.380Z,1856
2017-04-07T07:59:31.264Z,1860
2017-04-07T08:00:12.134Z,1984
2017-04-07T08:00:53.011Z,2156
2017-04-07T08:01:33.905Z,2180
2017-04-07T08:02:14.778Z,2188
2017-04-07T08:02:55.684Z,2400
2017-04-07T08:03:36.563Z,2744
2017-04-07T08:04:17.453Z,2688
2017-04-07T08:04:58.332Z,2708
2017-04-07T08:05:39.215Z,2808
2017-04-07T08:06:20.102Z,3280
2017-04-07T08:07:00.987Z,3024
2017-04-07T08:07:41.868Z,2716
2017-04-07T08:08:22.752Z,2764
2017-04-07T08:09:03.637Z,3136
2017-04-07T08:09:44.518Z,2816
2017-04-07T08:10:25.401Z,2592
2017-04-07T08:11:06.282Z,2604
2017-04-07T08:11:47.166Z,2628
2017-04-07T08:12:28.062Z,2308
2017-04-07T08:13:08.942Z,2260
2017-04-07T08:13:49.891Z,2580
2017-04-07T08:14:30.761Z,2524
2017-04-07T08:15:11.718Z,2464
2017-04-07T08:15:52.594Z,2548
2017-04-07T08:16:33.477Z,2564
2017-04-07T08:17:14.362Z,2508
2017-04-07T08:17:55.244Z,2488
2017-04-07T08:18:36.121Z,2612
2017-04-07T08:19:17.002Z,2376
2017-04-07T08:19:57.891Z,2388
2017-04-07T08:20:38.777Z,2496
2017-04-07T08:21:19.658Z,2912
2017-04-07T08:22:00.545Z,2640
2017-04-07T08:22:41.438Z,2248
2017-04-07T08:23:22.318Z,2092
2017-04-07T08:24:03.196Z,2012
2017-04-07T08:24:44.092Z,2140
2017-04-07T08:25:24.973Z,2032
2017-04-07T08:26:05.851Z,2072
2017-04-07T08:26:46.728Z,1804
2017-04-07T08:27:27.617Z,2000
2017-04-07T08:28:08.491Z,2280
2017-04-07T08:28:49.371Z,2256
2017-04-07T08:29:30.244Z,2492
2017-04-07T08:30:11.128Z,2584
2017-04-07T08:30:52.014Z,2528
2017-04-07T08:31:32.896Z,2388
2017-04-07T08:32:13.771Z,2596
2017-04-07T08:32:54.655Z,2688
2017-04-07T08:33:35.531Z,2168
2017-04-07T08:34:16.415Z,2204
2017-04-07T08:34:57.296Z,2132
2017-04-07T08:35:38.177Z,2464
2017-04-07T08:36:19.061Z,2240
2017-04-07T08:36:59.945Z,2368
2017-04-07T08:37:40.853Z,2676
2017-04-07T08:38:21.719Z,2620
2017-04-07T08:39:02.605Z,2728
2017-04-07T08:39:43.488Z,2312
2017-04-07T08:40:24.371Z,2432
2017-04-07T08:41:05.247Z,2944
2017-04-07T08:41:46.137Z,2680
2017-04-07T08:42:27.019Z,2416
2017-04-07T08:43:07.897Z,2632
2017-04-07T08:43:48.780Z,2612
2017-04-07T08:44:29.653Z,2232
2017-04-07T08:45:10.537Z,2780
2017-04-07T08:45:51.420Z,2480
2017-04-07T08:46:32.309Z,2872
2017-04-07T08:47:13.198Z,2880
2017-04-07T08:47:54.093Z,2320
2017-04-07T08:48:34.956Z,2300
2017-04-07T08:49:15.838Z,2448
2017-04-07T08:49:56.719Z,2400
2017-04-07T08:50:37.603Z,2928
2017-04-07T08:51:18.487Z,3056
2017-04-07T08:51:59.360Z,3244
2017-04-07T08:52:40.229Z,2848
2017-04-07T08:53:21.110Z,2384
2017-04-07T08:54:01.989Z,2440
2017-04-07T08:54:42.876Z,2196
2017-04-07T08:55:23.755Z,2808
2017-04-07T08:56:04.629Z,2588
2017-04-07T08:56:45.515Z,2512
2017-04-07T08:57:26.401Z,2492
2017-04-07T08:58:07.292Z,2424
2017-04-07T08:58:48.166Z,1984
2017-04-07T08:59:29.050Z,2028
2017-04-07T09:00:09.927Z,2048
2017-04-07T09:00:50.796Z,2200
2017-04-07T09:01:31.676Z,2332
2017-04-07T09:02:12.556Z,2252
2017-04-07T09:02:53.436Z,2240
2017-04-07T09:03:34.318Z,2128
2017-04-07T09:04:15.200Z,2052
2017-04-07T09:04:56.075Z,2416
2017-04-07T09:05:36.957Z,2228
2017-04-07T09:06:17.840Z,2432
2017-04-07T09:06:58.726Z,1872
2017-04-07T09:07:39.611Z,1836
2017-04-07T09:08:20.490Z,1780
2017-04-07T09:09:01.380Z,1692
2017-04-07T09:09:42.260Z,1688
2017-04-07T09:10:23.136Z,2188
2017-04-07T09:11:04.057Z,1952
2017-04-07T09:11:44.937Z,2096
2017-04-07T09:12:25.828Z,2504
2017-04-07T09:13:06.706Z,2324
2017-04-07T09:13:47.601Z,2132
2017-04-07T09:14:28.489Z,2360
2017-04-07T09:15:09.367Z,2472
2017-04-07T09:15:50.246Z,2416
2017-04-07T09:16:31.129Z,2412
2017-04-07T09:17:12.003Z,2600
2017-04-07T09:17:52.884Z,2376
2017-04-07T09:18:33.760Z,2316
2017-04-07T09:19:14.644Z,2300
2017-04-07T09:19:55.532Z,2576
2017-04-07T09:20:36.407Z,2176
2017-04-07T09:21:17.294Z,2568
2017-04-07T09:21:58.174Z,2412
2017-04-07T09:22:39.060Z,2276
2017-04-07T09:23:19.963Z,2180
2017-04-07T09:24:00.842Z,2316
2017-04-07T09:24:41.725Z,2516
2017-04-07T09:25:22.602Z,2624
2017-04-07T09:26:03.483Z,2916
2017-04-07T09:26:44.365Z,2464
2017-04-07T09:27:25.244Z,3180
2017-04-07T09:28:06.122Z,2984
2017-04-07T09:28:47.007Z,2672
2017-04-07T09:29:27.940Z,2820
2017-04-07T09:30:08.816Z,2696
2017-04-07T09:30:49.698Z,2904
2017-04-07T09:31:30.592Z,3056
2017-04-07T09:32:11.469Z,3020
2017-04-07T09:32:52.346Z,2880
2017-04-07T09:33:33.231Z,3000
2017-04-07T09:34:14.119Z,2844
2017-04-07T09:34:54.994Z,3060
2017-04-07T09:35:35.876Z,3156